Calumet Park, IL

4:39 AM CDT on August 31, 2015 (GMT -0500)
APRSWXNET | | Change Station
CLOSE
Current Station
Personal Weather Station
Location: Chicago, IL
Elevation: 616 ft
Nearby Weather Stations
Active Advisory: Dense Fog Advisory

Elev 616 ft 41.69 °N, 87.67 °W | Updated 18 minutes ago

Partly Cloudy
Partly Cloudy
62 °F
Feels Like 62 °F
N
0
Wind Variable Wind from North
Gusts 0.0 mph

Today
High -- | Low -- °F
--% Chance of Precip.
Yesterday
High -- | Low -- °F
Precip. -- in
6:15 AM 7:25 PM
Waning Gibbous, 96% visible
Pressure 30.01 in
Visibility 3.0 miles
Clouds Few 900 ft
Dew Point 61 °F
Humidity 97%
Rainfall in
Snow Depth Not available.
UV 0 out of 12
Pollen 9.30 out of 12
Air Quality Not available.
Flu Activity Not available.
METAR KMDW 310853Z 00000KT 3SM BR FEW009 19/17 A3003 RMK AO2 SLP162 T01940172 55001 $
Pressure 30.01 in
Visibility 3.0 miles
Clouds Few 900 ft
Dew Point 61 °F
Humidity 97%
Rainfall in
Snow Depth Not available.
UV 0 out of 12
Pollen 9.30 out of 12
Air Quality Not available.
Flu Activity Not available.
METAR KMDW 310853Z 00000KT 3SM BR FEW009 19/17 A3003 RMK AO2 SLP162 T01940172 55001 $
Nowcast | as of 2:28 am CDT on August 31, 2015

Areas of dense fog will continue to result in localized visibilities of a quarter mile or less. Person traveling overnight should reduce speed...leave extra distance between you and the car in front of you...and use your low beams. Visibilities should begin to quickly improve an hour or so after sunrise.

×

10-Day Weather Forecast

×

Almanac

Astronomy

Aug. 31, 2015 Rise Set
Actual Time
Civil Twilight
Nautical Twilight
Astronomical Twilight
Moon
Length of Visible Light
Length of Day
Tomorrow will be .
, % of the Moon is Illuminated

Today's Extremes

State Highs State Lows

Community

WunderPhotos

Upload Photos

1,851,227 photos uploaded!

WunderBlogs® & News

Nearby

Air Quality

  Air Quality AQ Index Pollutant
Not available.

Snow Depth

Station Depth Elevation

Earthquake Activity

City Distance Mag. Time & Date
Minimum magnitude displayed is 2.5.

Coastal Water Temperatures

Place Temperature

Stations

Nearby Weather Stations

Station Location Temp. Windchill Dew Point Humidity Wind Precip. Elev Updated Type
                   
Dense Fog Advisory
Statement as of 3:32 AM CDT on August 31, 2015

... Dense fog advisory in effect until 9 am CDT this morning...

The National Weather Service in Chicago has issued a dense fog
advisory... which is in effect until 9 am CDT this morning.

* Visibility... less than a quarter mile in areas of dense
fog... mainly outside of the city in rural and more outlying
areas.

Precautionary/preparedness actions...

A dense fog advisory means visibilities will frequently be
reduced to less than one quarter mile. If driving... slow down...
use your headlights... and leave plenty of distance ahead of you.